Archival Weather

Granbury Rgnl

Granbury, Texas (KGDJ)

Report from: Monday, January 29, 2024 6:15 AM UTC
Current time: Tuesday, June 18, 2024 11:49 AM UTC

Current weather – Weather history – Daily summaries
Weather forecast

Temperature4.9°C (40.8°F)
Dew point2.2°C (36.0°F)
Winds Calm
Visibility10 mi. (16.1 km)
Clouds Sky clear
Altimeter30.35 in.Hg (1028 mB)
Relative humidity83 %
Density altitude-1,606 ft. (-490 m)
Remarks Fully automated report
Automated weather observing station with precipitation discriminator
Flight conditions Visual Meteorological Conditions
Raw dataKGDJ 290615Z AUTO 00000KT 10SM CLR 05/02 A3035 RMK AO2 T00490022
An error has occurred. This application may no longer respond until reloaded. Reload 🗙